Time;durP1;ratioP1;P1;durP2;ratioP2;P2;SDS_P1;SDS_P2;PMS_P1;PMS_P2;Temp;Humidity;BMP_temperature;BMP_pressure;BME280_temperature;BME280_humidity;BME280_pressure;Samples;Min_cycle;Max_cycle;Signal;HPM_P1;HPM_P2
2021/12/05 00:17:19;;;;;;;;;;;21.50;45.50;;;;;;659335;29;1211;-85
2021/12/05 00:21:23;;;;;;;;;;;21.50;45.50;;;;;;666926;29;895;-88
2021/12/05 00:21:59;;;;;;;;;;;21.50;45.50;;;;;;666854;29;1270;-84
2021/12/05 00:22:25;;;;;;;;;;;21.50;45.60;;;;;;666963;29;817;-84
2021/12/05 00:22:47;;;;;;;;;;;21.50;45.60;;;;;;666915;29;785;-84
2021/12/05 00:23:11;;;;;;;;;;;21.60;45.60;;;;;;667001;29;789;-84
2021/12/05 00:23:40;;;;;;;;;;;21.50;45.50;;;;;;664378;29;1348;-84
2021/12/05 00:24:16;;;;;;;;;;;21.50;45.50;;;;;;664420;29;777;-85
2021/12/05 00:24:40;;;;;;;;;;;21.50;45.50;;;;;;664272;29;1391;-86
2021/12/05 00:25:04;;;;;;;;;;;21.50;45.60;;;;;;664373;29;1252;-85
2021/12/05 00:25:28;;;;;;;;;;;21.50;45.60;;;;;;664335;29;1531;-85
2021/12/05 00:25:52;;;;;;;;;;;21.50;45.60;;;;;;664240;29;1108;-85
2021/12/05 00:26:17;;;;;;;;;;;21.50;45.60;;;;;;664437;29;1409;-85
2021/12/05 00:26:38;;;;;;;;;;;21.50;45.60;;;;;;661854;29;872;-85
2021/12/05 00:27:04;;;;;;;;;;;21.50;45.60;;;;;;661826;29;1311;-85
2021/12/05 00:27:31;;;;;;;;;;;21.50;45.50;;;;;;661926;29;881;-86
2021/12/05 00:28:11;;;;;;;;;;;21.50;45.60;;;;;;664257;29;1311;-86
2021/12/05 00:29:09;;;;;;;;;;;21.50;45.50;;;;;;666799;29;624;-85
2021/12/05 00:29:50;;;;;;;;;;;21.50;45.50;;;;;;667220;29;1231;-84
2021/12/05 00:30:57;;;;;;;;;;;21.40;45.50;;;;;;666737;29;857;-87
2021/12/05 00:32:12;;;;;;;;;;;21.50;45.60;;;;;;670653;29;1075;-87
2021/12/05 00:37:13;;;;;;;;;;;21.60;45.70;;;;;;680262;29;1070;-86
2021/12/05 00:41:57;;;;;;;;;;;21.60;45.70;;;;;;676492;29;920;-86
2021/12/05 00:44:12;;;;;;;;;;;21.60;45.80;;;;;;677423;29;915;-86
2021/12/05 00:44:57;;;;;;;;;;;21.60;45.70;;;;;;677145;29;767;-85
2021/12/05 00:46:43;;;;;;;;;;;21.60;45.70;;;;;;676327;29;958;-86
2021/12/05 00:50:00;;;;;;;;;;;21.60;45.70;;;;;;677714;29;740;-84
2021/12/05 00:52:24;;;;;;;;;;;21.60;45.70;;;;;;676910;29;853;-85
2021/12/05 00:54:01;;;;;;;;;;;21.60;45.70;;;;;;675677;29;919;-86
2021/12/05 00:54:55;;;;;;;;;;;21.60;45.70;;;;;;677543;29;911;-86
2021/12/05 00:56:33;;;;;;;;;;;21.60;45.70;;;;;;677729;29;615;-86
2021/12/05 01:00:13;;;;;;;;;;;21.60;45.80;;;;;;677707;29;772;-86
2021/12/05 01:00:58;;;;;;;;;;;21.60;45.70;;;;;;677440;29;916;-84
2021/12/05 01:07:31;;;;;;;;;;;21.60;45.80;;;;;;675163;29;792;-85
2021/12/05 01:10:53;;;;;;;;;;;21.50;45.70;;;;;;674988;29;997;-85
2021/12/05 01:15:21;;;;;;;;;;;21.60;45.70;;;;;;668932;29;1286;-86
2021/12/05 01:15:42;;;;;;;;;;;21.60;45.70;;;;;;667291;29;1256;-85
2021/12/05 01:16:05;;;;;;;;;;;21.60;45.70;;;;;;667311;29;1253;-86
2021/12/05 01:16:35;;;;;;;;;;;21.60;45.70;;;;;;666975;29;1253;-85
2021/12/05 01:16:56;;;;;;;;;;;21.60;45.80;;;;;;668627;29;983;-85
2021/12/05 01:17:21;;;;;;;;;;;21.60;45.70;;;;;;669784;29;1234;-86
2021/12/05 01:17:55;;;;;;;;;;;21.60;45.80;;;;;;669899;29;922;-85
2021/12/05 01:18:18;;;;;;;;;;;21.60;45.70;;;;;;669868;29;946;-86
2021/12/05 01:18:38;;;;;;;;;;;21.60;45.70;;;;;;667126;29;1352;-86
2021/12/05 01:18:59;;;;;;;;;;;21.60;45.80;;;;;;667320;29;1310;-86
2021/12/05 01:19:21;;;;;;;;;;;21.60;45.70;;;;;;667140;29;1316;-87
2021/12/05 01:19:42;;;;;;;;;;;21.60;45.70;;;;;;667236;29;1303;-85
2021/12/05 01:20:06;;;;;;;;;;;21.60;45.70;;;;;;667316;29;1428;-85
2021/12/05 01:20:28;;;;;;;;;;;21.60;45.80;;;;;;668021;29;1367;-85
2021/12/05 01:20:56;;;;;;;;;;;21.60;45.70;;;;;;669800;29;1224;-84
2021/12/05 01:21:20;;;;;;;;;;;21.60;45.70;;;;;;667652;29;1964;-85
2021/12/05 01:21:43;;;;;;;;;;;21.60;45.70;;;;;;667230;29;1384;-85
2021/12/05 01:22:10;;;;;;;;;;;21.60;45.70;;;;;;664753;29;1321;-84
2021/12/05 01:22:33;;;;;;;;;;;21.60;45.60;;;;;;669565;29;1078;-85
2021/12/05 01:23:03;;;;;;;;;;;21.60;45.70;;;;;;667455;29;836;-85
2021/12/05 01:23:41;;;;;;;;;;;21.60;45.60;;;;;;667225;29;1210;-85
2021/12/05 01:25:36;;;;;;;;;;;21.60;45.60;;;;;;672043;29;594;-83
2021/12/05 01:26:05;;;;;;;;;;;21.60;45.70;;;;;;669699;29;1236;-84
2021/12/05 01:26:43;;;;;;;;;;;21.60;45.60;;;;;;669701;29;1208;-84
2021/12/05 01:27:18;;;;;;;;;;;21.60;45.60;;;;;;669696;29;1119;-84
2021/12/05 01:27:54;;;;;;;;;;;21.60;45.60;;;;;;669818;29;1475;-84
2021/12/05 01:29:51;;;;;;;;;;;20.70;45.20;;;;;;670434;29;835;-85
2021/12/05 01:30:59;;;;;;;;;;;21.60;45.70;;;;;;672358;29;658;-85
2021/12/05 01:33:20;;;;;;;;;;;21.60;45.70;;;;;;672166;29;1062;-84
2021/12/05 01:33:55;;;;;;;;;;;21.60;45.70;;;;;;672363;29;1240;-85
2021/12/05 01:35:42;;;;;;;;;;;21.40;45.60;;;;;;672260;29;791;-83
2021/12/05 01:36:16;;;;;;;;;;;21.60;45.70;;;;;;672458;29;958;-83
2021/12/05 01:36:50;;;;;;;;;;;21.60;45.70;;;;;;669705;29;1299;-84
2021/12/05 01:37:55;;;;;;;;;;;21.60;45.80;;;;;;667010;29;1168;-83
2021/12/05 01:38:54;;;;;;;;;;;21.50;45.70;;;;;;667082;29;1422;-83
2021/12/05 01:39:45;;;;;;;;;;;21.50;45.70;;;;;;672382;29;571;-83
2021/12/05 01:41:09;;;;;;;;;;;21.60;45.80;;;;;;674946;29;575;-83
2021/12/05 01:46:25;;;;;;;;;;;21.80;45.90;;;;;;669735;29;1095;-83
2021/12/05 01:49:27;;;;;;;;;;;21.50;45.90;;;;;;669734;29;792;-83
2021/12/05 01:52:43;;;;;;;;;;;21.50;45.80;;;;;;669794;29;724;-84
2021/12/05 01:54:39;;;;;;;;;;;21.50;45.80;;;;;;674850;29;874;-85
2021/12/05 01:56:44;;;;;;;;;;;21.50;45.80;;;;;;669577;29;1184;-85
2021/12/05 01:56:53;;;;;;;;;;;21.50;45.80;;;;;;672373;29;876;-85
2021/12/05 01:57:46;;;;;;;;;;;21.50;45.80;;;;;;674910;29;712;-84
2021/12/05 02:00:46;;;;;;;;;;;21.50;45.90;;;;;;675042;29;599;-85
2021/12/05 02:08:04;;;;;;;;;;;21.50;45.90;;;;;;672370;29;1174;-83
2021/12/05 02:10:41;;;;;;;;;;;21.50;45.80;;;;;;677368;29;1285;-85
2021/12/05 02:16:35;;;;;;;;;;;21.50;46.00;;;;;;674740;29;1153;-86
2021/12/05 02:36:18;;;;;;;;;;;21.40;46.10;;;;;;667686;29;996;-85
2021/12/05 02:38:38;;;;;;;;;;;21.40;46.00;;;;;;667752;29;694;-85
2021/12/05 02:39:11;;;;;;;;;;;21.40;46.00;;;;;;667605;29;1250;-84
2021/12/05 02:41:00;;;;;;;;;;;21.40;46.10;;;;;;667679;29;619;-84
2021/12/05 02:41:22;;;;;;;;;;;21.40;46.00;;;;;;667647;29;1876;-84
2021/12/05 02:41:46;;;;;;;;;;;21.40;46.00;;;;;;667574;29;1195;-86
2021/12/05 02:42:16;;;;;;;;;;;21.50;46.20;;;;;;667600;29;1080;-84
2021/12/05 02:42:48;;;;;;;;;;;21.40;46.00;;;;;;667775;29;974;-84
2021/12/05 02:46:28;;;;;;;;;;;21.50;46.10;;;;;;667719;29;1066;-85
2021/12/05 02:46:59;;;;;;;;;;;21.40;46.00;;;;;;667599;29;1171;-84
2021/12/05 02:47:22;;;;;;;;;;;21.40;46.10;;;;;;667663;29;859;-84
2021/12/05 02:47:48;;;;;;;;;;;21.40;46.10;;;;;;667669;29;859;-83
2021/12/05 02:48:09;;;;;;;;;;;21.40;46.10;;;;;;667307;29;1199;-84
2021/12/05 02:48:32;;;;;;;;;;;21.40;46.10;;;;;;667351;29;941;-83
2021/12/05 02:48:58;;;;;;;;;;;21.40;46.10;;;;;;667562;29;934;-85
2021/12/05 02:49:18;;;;;;;;;;;21.40;46.10;;;;;;665580;29;907;-84
2021/12/05 02:49:40;;;;;;;;;;;21.40;46.10;;;;;;665281;29;990;-85
2021/12/05 02:50:04;;;;;;;;;;;21.40;46.10;;;;;;665221;29;820;-84
2021/12/05 02:50:27;;;;;;;;;;;21.40;46.10;;;;;;665391;29;828;-84
2021/12/05 02:50:47;;;;;;;;;;;21.40;46.00;;;;;;665302;29;1289;-85
2021/12/05 02:51:10;;;;;;;;;;;21.40;46.00;;;;;;666028;29;909;-83
2021/12/05 02:51:32;;;;;;;;;;;21.40;46.00;;;;;;667663;29;801;-84
2021/12/05 02:51:58;;;;;;;;;;;21.40;46.00;;;;;;665255;29;841;-84
2021/12/05 02:52:26;;;;;;;;;;;21.40;46.10;;;;;;665376;29;894;-83
2021/12/05 02:52:46;;;;;;;;;;;21.40;46.10;;;;;;665422;29;1642;-84
2021/12/05 02:53:19;;;;;;;;;;;21.40;46.00;;;;;;664530;29;1106;-84
2021/12/05 02:53:57;;;;;;;;;;;21.40;46.10;;;;;;667648;29;1335;-85
2021/12/05 02:54:19;;;;;;;;;;;21.40;46.00;;;;;;669678;29;843;-83
2021/12/05 02:54:44;;;;;;;;;;;21.40;46.10;;;;;;665827;29;785;-84
2021/12/05 02:55:11;;;;;;;;;;;21.40;46.00;;;;;;664947;29;1187;-82
2021/12/05 02:55:41;;;;;;;;;;;21.40;46.10;;;;;;671574;29;910;-84
2021/12/05 02:56:02;;;;;;;;;;;21.40;46.10;;;;;;672700;29;975;-83
2021/12/05 02:56:25;;;;;;;;;;;21.40;46.10;;;;;;672763;29;1090;-84
2021/12/05 02:56:49;;;;;;;;;;;21.40;46.00;;;;;;672587;29;926;-84
2021/12/05 02:57:10;;;;;;;;;;;21.40;46.00;;;;;;672777;29;776;-84
2021/12/05 03:00:44;;;;;;;;;;;21.40;46.00;;;;;;667687;29;607;-85
2021/12/05 03:01:45;;;;;;;;;;;21.40;46.10;;;;;;667678;29;772;-85
2021/12/05 03:02:11;;;;;;;;;;;21.40;46.10;;;;;;667268;29;832;-85
2021/12/05 03:02:39;;;;;;;;;;;21.40;46.10;;;;;;667388;29;1685;-85
2021/12/05 03:02:59;;;;;;;;;;;21.40;46.10;;;;;;667554;29;1091;-85
2021/12/05 03:03:25;;;;;;;;;;;21.40;46.10;;;;;;667551;29;1384;-84
2021/12/05 03:03:46;;;;;;;;;;;21.40;46.10;;;;;;667627;29;843;-84
2021/12/05 03:04:08;;;;;;;;;;;21.40;46.10;;;;;;667674;29;820;-85
2021/12/05 03:04:32;;;;;;;;;;;21.40;46.10;;;;;;665537;29;918;-84
2021/12/05 03:04:55;;;;;;;;;;;21.40;46.10;;;;;;666609;29;1197;-85
2021/12/05 03:05:20;;;;;;;;;;;21.40;46.10;;;;;;667184;29;1434;-84
2021/12/05 03:05:43;;;;;;;;;;;21.40;46.10;;;;;;666962;29;1088;-84
2021/12/05 03:06:13;;;;;;;;;;;21.40;46.10;;;;;;669474;29;1236;-85
2021/12/05 03:06:38;;;;;;;;;;;21.40;46.10;;;;;;666815;29;1202;-84
2021/12/05 03:07:04;;;;;;;;;;;21.40;46.10;;;;;;667286;29;845;-85
2021/12/05 03:07:37;;;;;;;;;;;21.40;46.10;;;;;;667091;29;833;-84
2021/12/05 03:08:01;;;;;;;;;;;21.40;46.10;;;;;;662966;29;837;-85
2021/12/05 03:08:22;;;;;;;;;;;21.40;46.10;;;;;;665385;29;1246;-85
2021/12/05 03:08:44;;;;;;;;;;;21.40;46.10;;;;;;666905;29;800;-84
2021/12/05 03:09:08;;;;;;;;;;;21.40;46.10;;;;;;667109;29;785;-84
2021/12/05 03:09:28;;;;;;;;;;;21.50;46.20;;;;;;667150;29;844;-84
2021/12/05 03:09:49;;;;;;;;;;;21.40;46.10;;;;;;668221;29;812;-84
2021/12/05 03:10:12;;;;;;;;;;;21.40;46.10;;;;;;668647;29;1142;-84
2021/12/05 03:10:32;;;;;;;;;;;21.40;46.10;;;;;;666791;29;1228;-85
2021/12/05 03:10:54;;;;;;;;;;;21.40;46.10;;;;;;667008;29;1272;-85
2021/12/05 03:11:15;;;;;;;;;;;21.40;46.10;;;;;;667107;29;804;-84
2021/12/05 03:11:36;;;;;;;;;;;21.40;46.10;;;;;;666993;29;1181;-84
2021/12/05 03:11:57;;;;;;;;;;;21.40;46.20;;;;;;667237;29;1091;-85
2021/12/05 03:12:19;;;;;;;;;;;21.40;46.10;;;;;;669473;29;1406;-85
2021/12/05 03:12:39;;;;;;;;;;;21.40;46.10;;;;;;674511;29;1504;-84
2021/12/05 03:13:00;;;;;;;;;;;21.40;46.00;;;;;;674625;29;1094;-85
2021/12/05 03:13:22;;;;;;;;;;;21.40;46.10;;;;;;674138;29;844;-84
2021/12/05 03:13:43;;;;;;;;;;;21.40;46.10;;;;;;672853;29;811;-84
2021/12/05 03:14:03;;;;;;;;;;;21.40;46.10;;;;;;672524;29;1160;-84
2021/12/05 03:14:24;;;;;;;;;;;21.40;46.10;;;;;;674456;29;1102;-84
2021/12/05 03:14:45;;;;;;;;;;;21.40;46.10;;;;;;674619;29;1238;-84
2021/12/05 03:15:09;;;;;;;;;;;21.40;46.10;;;;;;674724;29;930;-84
2021/12/05 03:15:29;;;;;;;;;;;21.40;46.10;;;;;;672056;29;1125;-84
2021/12/05 03:15:50;;;;;;;;;;;21.40;46.30;;;;;;672186;29;910;-83
2021/12/05 03:16:12;;;;;;;;;;;21.40;46.10;;;;;;670161;29;860;-85
2021/12/05 03:16:33;;;;;;;;;;;21.40;46.10;;;;;;671787;29;1111;-86
2021/12/05 03:16:54;;;;;;;;;;;21.40;46.10;;;;;;670454;29;887;-85
2021/12/05 03:17:15;;;;;;;;;;;21.40;46.10;;;;;;672689;29;1223;-85
2021/12/05 03:17:36;;;;;;;;;;;21.40;46.10;;;;;;672152;29;911;-83
2021/12/05 03:17:56;;;;;;;;;;;21.40;46.10;;;;;;672174;29;792;-84
2021/12/05 03:18:17;;;;;;;;;;;21.40;46.10;;;;;;671804;29;1327;-86
2021/12/05 03:18:55;;;;;;;;;;;21.40;46.10;;;;;;672307;29;881;-84
2021/12/05 03:19:16;;;;;;;;;;;21.40;46.10;;;;;;672034;29;1524;-84
2021/12/05 03:19:37;;;;;;;;;;;21.40;46.10;;;;;;674557;29;1125;-85
2021/12/05 03:19:58;;;;;;;;;;;21.40;46.10;;;;;;674790;29;811;-85
2021/12/05 03:20:18;;;;;;;;;;;21.40;46.10;;;;;;673663;29;1313;-85
2021/12/05 03:20:39;;;;;;;;;;;21.40;46.10;;;;;;676308;29;1137;-85
2021/12/05 03:21:03;;;;;;;;;;;21.40;46.10;;;;;;676233;29;1482;-85
2021/12/05 03:21:25;;;;;;;;;;;21.40;46.10;;;;;;672178;29;1911;-85
2021/12/05 03:21:47;;;;;;;;;;;21.40;47.30;;;;;;670493;29;1078;-85
2021/12/05 03:22:07;;;;;;;;;;;21.40;46.10;;;;;;671929;29;1138;-85
2021/12/05 03:22:28;;;;;;;;;;;21.40;46.10;;;;;;670905;29;1254;-86
2021/12/05 03:22:50;;;;;;;;;;;21.40;46.10;;;;;;669581;29;1202;-85
2021/12/05 03:23:11;;;;;;;;;;;21.40;46.10;;;;;;669529;29;1513;-85
2021/12/05 03:23:31;;;;;;;;;;;21.40;46.20;;;;;;670171;29;788;-83
2021/12/05 03:23:52;;;;;;;;;;;21.40;46.10;;;;;;671725;29;876;-83
2021/12/05 03:24:14;;;;;;;;;;;21.40;46.10;;;;;;671947;29;1221;-83
2021/12/05 03:24:34;;;;;;;;;;;21.40;46.20;;;;;;671824;29;1508;-84
2021/12/05 03:24:55;;;;;;;;;;;21.40;46.10;;;;;;669527;29;848;-84
2021/12/05 03:25:15;;;;;;;;;;;21.40;46.20;;;;;;669665;29;1090;-84
2021/12/05 03:25:36;;;;;;;;;;;21.40;46.20;;;;;;669617;29;1368;-84
2021/12/05 03:25:57;;;;;;;;;;;21.40;46.20;;;;;;669449;29;903;-84
2021/12/05 03:26:20;;;;;;;;;;;21.40;46.20;;;;;;669813;29;800;-84
2021/12/05 03:26:42;;;;;;;;;;;21.40;46.20;;;;;;672585;29;768;-85
2021/12/05 03:27:03;;;;;;;;;;;21.40;46.30;;;;;;672342;29;1409;-83
2021/12/05 03:27:23;;;;;;;;;;;21.40;46.20;;;;;;672097;29;1141;-84
2021/12/05 03:27:44;;;;;;;;;;;21.40;46.20;;;;;;672897;29;864;-84
2021/12/05 03:28:05;;;;;;;;;;;21.40;46.30;;;;;;674516;29;1403;-83
2021/12/05 03:28:25;;;;;;;;;;;21.40;46.30;;;;;;674543;29;808;-83
2021/12/05 03:28:49;;;;;;;;;;;21.40;46.30;;;;;;674863;29;847;-84
2021/12/05 03:29:11;;;;;;;;;;;21.40;46.30;;;;;;677355;29;830;-84
2021/12/05 03:29:31;;;;;;;;;;;21.40;46.20;;;;;;677375;29;859;-84
2021/12/05 03:29:52;;;;;;;;;;;21.40;46.40;;;;;;674634;29;1703;-84
2021/12/05 03:30:14;;;;;;;;;;;21.40;46.30;;;;;;674549;29;792;-84
2021/12/05 03:30:35;;;;;;;;;;;21.40;47.40;;;;;;671835;29;1403;-85
2021/12/05 03:30:56;;;;;;;;;;;21.40;46.30;;;;;;672101;29;752;-85
2021/12/05 03:31:17;;;;;;;;;;;21.40;46.30;;;;;;672129;29;862;-83
2021/12/05 03:31:38;;;;;;;;;;;21.40;46.40;;;;;;672676;29;563;-84
2021/12/05 03:31:59;;;;;;;;;;;21.40;46.30;;;;;;674657;29;906;-84
2021/12/05 03:32:20;;;;;;;;;;;21.40;46.30;;;;;;675176;29;771;-83
2021/12/05 03:32:40;;;;;;;;;;;21.40;46.30;;;;;;677142;29;919;-84
2021/12/05 03:33:01;;;;;;;;;;;21.40;46.30;;;;;;677170;29;835;-82
2021/12/05 03:33:22;;;;;;;;;;;21.40;46.40;;;;;;677866;29;966;-83
2021/12/05 03:33:42;;;;;;;;;;;21.40;46.40;;;;;;679974;29;1259;-83
2021/12/05 03:34:04;;;;;;;;;;;21.40;46.40;;;;;;679945;29;811;-83
2021/12/05 03:34:25;;;;;;;;;;;21.40;46.30;;;;;;679987;29;1363;-84
2021/12/05 03:34:46;;;;;;;;;;;21.40;46.40;;;;;;680112;29;957;-83
2021/12/05 03:35:07;;;;;;;;;;;21.40;46.40;;;;;;679919;29;808;-84
2021/12/05 03:35:30;;;;;;;;;;;21.40;46.40;;;;;;677397;29;906;-83
2021/12/05 03:35:50;;;;;;;;;;;21.40;46.30;;;;;;677407;29;950;-84
2021/12/05 03:36:11;;;;;;;;;;;21.40;46.40;;;;;;677385;29;811;-84
2021/12/05 03:36:32;;;;;;;;;;;21.40;46.40;;;;;;674736;29;1389;-82
2021/12/05 03:36:55;;;;;;;;;;;21.40;46.40;;;;;;675211;29;1293;-83
2021/12/05 03:37:16;;;;;;;;;;;21.40;46.40;;;;;;678227;29;799;-83
2021/12/05 03:37:36;;;;;;;;;;;21.40;46.40;;;;;;677402;29;1210;-84
2021/12/05 03:37:57;;;;;;;;;;;21.40;46.40;;;;;;677431;29;831;-83
2021/12/05 03:38:18;;;;;;;;;;;21.40;46.40;;;;;;678203;29;838;-84
2021/12/05 03:38:39;;;;;;;;;;;21.40;46.40;;;;;;677396;29;1502;-85
2021/12/05 03:39:02;;;;;;;;;;;21.40;46.40;;;;;;677432;29;807;-84
2021/12/05 03:39:24;;;;;;;;;;;21.40;47.50;;;;;;675466;29;1174;-83
2021/12/05 03:39:44;;;;;;;;;;;21.40;46.40;;;;;;674753;29;1375;-82
2021/12/05 03:40:06;;;;;;;;;;;21.40;46.40;;;;;;677504;29;780;-83
2021/12/05 03:40:30;;;;;;;;;;;21.40;46.40;;;;;;678098;29;1401;-83
2021/12/05 03:40:51;;;;;;;;;;;21.40;46.40;;;;;;680040;29;909;-84
2021/12/05 03:41:12;;;;;;;;;;;21.40;46.50;;;;;;680895;29;1987;-83
2021/12/05 03:41:33;;;;;;;;;;;21.40;46.40;;;;;;683694;28;783;-83
2021/12/05 03:41:54;;;;;;;;;;;21.40;46.40;;;;;;682581;29;1308;-84
2021/12/05 03:42:15;;;;;;;;;;;21.40;46.50;;;;;;682575;29;867;-84
2021/12/05 03:42:36;;;;;;;;;;;21.40;46.40;;;;;;680532;29;1185;-85
2021/12/05 03:42:57;;;;;;;;;;;21.40;46.40;;;;;;679987;29;898;-86
2021/12/05 03:43:19;;;;;;;;;;;21.40;46.50;;;;;;679835;29;713;-87
2021/12/05 03:43:41;;;;;;;;;;;21.40;46.40;;;;;;679986;29;1145;-87
2021/12/05 03:44:02;;;;;;;;;;;21.40;46.40;;;;;;680033;29;850;-84
2021/12/05 03:44:25;;;;;;;;;;;21.40;46.40;;;;;;679917;29;1323;-85
2021/12/05 03:44:45;;;;;;;;;;;21.40;46.50;;;;;;681241;29;803;-84
2021/12/05 03:45:08;;;;;;;;;;;21.40;46.40;;;;;;680081;29;1233;-87
2021/12/05 03:45:32;;;;;;;;;;;21.40;46.50;;;;;;680112;29;804;-83
2021/12/05 03:45:54;;;;;;;;;;;21.40;46.40;;;;;;680055;29;811;-82
2021/12/05 03:46:18;;;;;;;;;;;21.40;46.50;;;;;;680048;29;953;-84
2021/12/05 03:46:40;;;;;;;;;;;21.40;46.40;;;;;;679744;29;1452;-83
2021/12/05 03:47:01;;;;;;;;;;;21.40;46.50;;;;;;680801;29;1513;-81
2021/12/05 03:47:22;;;;;;;;;;;21.40;46.40;;;;;;680621;29;859;-81
2021/12/05 03:47:42;;;;;;;;;;;21.40;46.40;;;;;;677784;29;1134;-84
2021/12/05 03:48:04;;;;;;;;;;;21.40;46.50;;;;;;678086;29;998;-85
2021/12/05 03:48:26;;;;;;;;;;;21.40;46.40;;;;;;674907;29;1527;-88
2021/12/05 03:48:49;;;;;;;;;;;21.40;46.40;;;;;;674730;29;1308;-82
2021/12/05 03:49:11;;;;;;;;;;;21.40;46.50;;;;;;675213;29;917;-81
2021/12/05 03:49:32;;;;;;;;;;;21.40;46.50;;;;;;677650;29;1102;-82
2021/12/05 03:49:52;;;;;;;;;;;21.40;46.40;;;;;;679836;29;1160;-85
2021/12/05 03:50:13;;;;;;;;;;;21.40;46.40;;;;;;676919;29;1306;-86
2021/12/05 03:50:35;;;;;;;;;;;21.40;46.40;;;;;;679439;29;1590;-84
2021/12/05 03:50:57;;;;;;;;;;;21.40;46.40;;;;;;680186;29;859;-84
2021/12/05 03:51:19;;;;;;;;;;;21.40;46.50;;;;;;679983;29;1383;-86
2021/12/05 03:52:08;;;;;;;;;;;21.40;46.50;;;;;;681534;23;1699;-93
2021/12/05 03:52:29;;;;;;;;;;;21.30;46.40;;;;;;677216;29;1263;-88
2021/12/05 03:52:49;;;;;;;;;;;21.40;46.50;;;;;;672962;29;1221;-88
2021/12/05 03:53:17;;;;;;;;;;;21.40;46.50;;;;;;673787;29;1504;-89
2021/12/05 03:53:37;;;;;;;;;;;21.40;46.40;;;;;;675493;29;1133;-87
2021/12/05 03:53:58;;;;;;;;;;;21.40;46.40;;;;;;674083;29;1310;-88
2021/12/05 03:54:20;;;;;;;;;;;21.40;46.50;;;;;;673644;29;1084;-91
2021/12/05 03:54:41;;;;;;;;;;;21.40;46.50;;;;;;674482;29;895;-86
2021/12/05 03:55:03;;;;;;;;;;;21.40;46.50;;;;;;676544;29;1407;-85
2021/12/05 03:55:23;;;;;;;;;;;21.40;46.50;;;;;;675197;29;936;-83
2021/12/05 03:55:46;;;;;;;;;;;21.40;46.40;;;;;;675650;29;1253;-85
2021/12/05 03:56:08;;;;;;;;;;;21.40;46.40;;;;;;677519;29;1429;-86
2021/12/05 03:56:29;;;;;;;;;;;21.40;46.40;;;;;;676434;29;1393;-82
2021/12/05 03:56:50;;;;;;;;;;;21.40;46.40;;;;;;678645;29;1009;-82
2021/12/05 03:57:10;;;;;;;;;;;21.40;46.50;;;;;;678558;29;982;-83
2021/12/05 03:57:31;;;;;;;;;;;21.40;46.40;;;;;;680149;29;1029;-82
2021/12/05 03:57:52;;;;;;;;;;;21.40;46.50;;;;;;679971;29;1183;-82
2021/12/05 03:58:13;;;;;;;;;;;21.40;46.50;;;;;;679617;29;827;-83
2021/12/05 03:58:33;;;;;;;;;;;21.40;46.50;;;;;;677472;29;994;-85
2021/12/05 03:58:54;;;;;;;;;;;21.40;46.50;;;;;;677656;29;988;-83
2021/12/05 03:59:15;;;;;;;;;;;21.40;46.50;;;;;;679062;29;896;-84
2021/12/05 03:59:36;;;;;;;;;;;21.40;46.50;;;;;;680564;29;867;-85
2021/12/05 03:59:57;;;;;;;;;;;21.40;46.50;;;;;;682776;29;929;-84
2021/12/05 04:00:22;;;;;;;;;;;21.40;46.50;;;;;;682525;29;1294;-82
2021/12/05 04:00:47;;;;;;;;;;;21.40;46.40;;;;;;681680;29;1228;-82
2021/12/05 04:01:09;;;;;;;;;;;21.40;46.50;;;;;;679890;29;1978;-81
2021/12/05 04:01:29;;;;;;;;;;;21.40;46.50;;;;;;680093;29;871;-81
2021/12/05 04:01:50;;;;;;;;;;;21.40;46.50;;;;;;677400;29;1427;-79
2021/12/05 04:02:11;;;;;;;;;;;21.40;46.50;;;;;;678850;29;899;-81
2021/12/05 04:02:33;;;;;;;;;;;21.40;46.50;;;;;;679955;29;887;-81
2021/12/05 04:02:55;;;;;;;;;;;21.40;46.50;;;;;;680093;29;867;-82
2021/12/05 04:03:16;;;;;;;;;;;21.40;46.50;;;;;;679982;29;1115;-82
2021/12/05 04:03:38;;;;;;;;;;;21.40;46.50;;;;;;680904;29;926;-84
2021/12/05 04:03:58;;;;;;;;;;;21.40;46.50;;;;;;681547;29;1011;-83
2021/12/05 04:04:19;;;;;;;;;;;21.40;46.50;;;;;;681240;29;1030;-83
2021/12/05 04:04:40;;;;;;;;;;;21.40;46.50;;;;;;682654;29;1094;-84
2021/12/05 04:05:02;;;;;;;;;;;21.40;46.50;;;;;;682796;29;893;-83
2021/12/05 04:05:23;;;;;;;;;;;21.40;46.50;;;;;;682898;28;807;-84
2021/12/05 04:05:45;;;;;;;;;;;21.40;46.60;;;;;;679942;29;1162;-84
2021/12/05 04:06:06;;;;;;;;;;;21.40;46.50;;;;;;680047;29;843;-83
2021/12/05 04:07:25;;;;;;;;;;;21.40;47.60;;;;;;720324;23;1755;-87
2021/12/05 04:07:45;;;;;;;;;;;21.40;46.50;;;;;;683239;28;1182;-87
2021/12/05 04:08:08;;;;;;;;;;;21.40;46.50;;;;;;681396;29;1291;-85
2021/12/05 04:08:29;;;;;;;;;;;21.40;46.60;;;;;;680965;29;1150;-89
2021/12/05 04:08:50;;;;;;;;;;;21.40;46.50;;;;;;683002;29;1123;-89
2021/12/05 04:09:11;;;;;;;;;;;21.40;47.60;;;;;;682951;29;1370;-90
2021/12/05 04:09:33;;;;;;;;;;;21.40;46.50;;;;;;682816;29;1328;-89
2021/12/05 04:09:54;;;;;;;;;;;21.40;46.50;;;;;;682495;29;1252;-89
2021/12/05 04:10:15;;;;;;;;;;;21.40;46.50;;;;;;681983;29;1209;-88
2021/12/05 04:10:37;;;;;;;;;;;21.40;46.50;;;;;;682745;29;1136;-89
2021/12/05 04:11:00;;;;;;;;;;;21.40;46.50;;;;;;682397;29;1194;-95
2021/12/05 04:11:25;;;;;;;;;;;21.40;46.40;;;;;;680418;29;1194;-89
2021/12/05 04:11:56;;;;;;;;;;;21.40;46.40;;;;;;680345;29;1264;-88
2021/12/05 04:12:17;;;;;;;;;;;21.30;46.30;;;;;;677411;29;1317;-85
2021/12/05 04:12:37;;;;;;;;;;;21.40;46.40;;;;;;677000;29;1114;-85
2021/12/05 04:12:58;;;;;;;;;;;21.40;46.50;;;;;;679919;29;784;-83
2021/12/05 04:13:19;;;;;;;;;;;21.40;46.40;;;;;;676788;29;1108;-86
2021/12/05 04:13:39;;;;;;;;;;;21.40;46.40;;;;;;676847;29;1119;-86
2021/12/05 04:14:01;;;;;;;;;;;21.40;46.40;;;;;;676340;29;1312;-86
2021/12/05 04:14:21;;;;;;;;;;;21.40;46.40;;;;;;675278;29;1199;-85
2021/12/05 04:14:44;;;;;;;;;;;21.40;46.40;;;;;;675111;29;1178;-86
2021/12/05 04:15:06;;;;;;;;;;;21.40;46.30;;;;;;676075;29;797;-85
2021/12/05 04:15:27;;;;;;;;;;;21.40;46.40;;;;;;675344;29;1472;-85
2021/12/05 04:15:49;;;;;;;;;;;21.40;46.40;;;;;;676162;29;1240;-86
2021/12/05 04:16:09;;;;;;;;;;;21.40;46.40;;;;;;677879;29;1379;-87
2021/12/05 04:16:30;;;;;;;;;;;21.40;46.40;;;;;;678279;29;1294;-86
2021/12/05 04:16:51;;;;;;;;;;;21.40;46.30;;;;;;677774;29;1401;-85
2021/12/05 04:17:13;;;;;;;;;;;21.40;46.40;;;;;;680058;29;1099;-86
2021/12/05 04:17:34;;;;;;;;;;;21.40;46.40;;;;;;677926;29;871;-87
2021/12/05 04:17:54;;;;;;;;;;;21.40;46.40;;;;;;679514;29;1175;-83
2021/12/05 04:18:15;;;;;;;;;;;21.40;46.30;;;;;;680453;29;1180;-83
2021/12/05 04:18:35;;;;;;;;;;;21.40;46.30;;;;;;682527;29;1382;-84
2021/12/05 04:18:57;;;;;;;;;;;21.00;46.10;;;;;;683117;29;910;-84
2021/12/05 04:19:17;;;;;;;;;;;21.50;46.40;;;;;;683159;29;839;-85
2021/12/05 04:19:38;;;;;;;;;;;21.40;46.30;;;;;;680788;29;1176;-87
2021/12/05 04:19:59;;;;;;;;;;;21.40;46.30;;;;;;683038;29;1361;-85
2021/12/05 04:20:20;;;;;;;;;;;21.40;46.30;;;;;;680459;29;1115;-85
2021/12/05 04:20:40;;;;;;;;;;;21.40;46.30;;;;;;680515;29;799;-84
2021/12/05 04:21:02;;;;;;;;;;;21.40;46.30;;;;;;680344;29;1187;-87
2021/12/05 04:21:22;;;;;;;;;;;21.40;46.40;;;;;;680457;29;1964;-84
2021/12/05 04:21:43;;;;;;;;;;;21.40;46.30;;;;;;680937;29;1248;-83
2021/12/05 04:22:07;;;;;;;;;;;21.40;46.40;;;;;;683211;29;803;-86
2021/12/05 04:22:28;;;;;;;;;;;21.40;46.30;;;;;;680504;29;1195;-88
2021/12/05 04:22:49;;;;;;;;;;;21.40;46.30;;;;;;679952;29;1207;-88
2021/12/05 04:23:10;;;;;;;;;;;21.40;46.30;;;;;;680317;29;1226;-84
2021/12/05 04:23:31;;;;;;;;;;;21.40;46.40;;;;;;681452;29;813;-92
2021/12/05 04:23:52;;;;;;;;;;;21.40;46.30;;;;;;683095;29;1260;-84
2021/12/05 04:24:13;;;;;;;;;;;21.40;46.40;;;;;;683165;29;1163;-90
2021/12/05 04:24:34;;;;;;;;;;;21.40;46.40;;;;;;682738;29;860;-87
2021/12/05 04:24:54;;;;;;;;;;;21.40;46.30;;;;;;680890;29;1293;-88
2021/12/05 04:25:16;;;;;;;;;;;21.40;46.30;;;;;;680425;29;1282;-87
2021/12/05 04:25:38;;;;;;;;;;;21.40;46.40;;;;;;680424;29;1183;-87
2021/12/05 04:25:58;;;;;;;;;;;21.40;46.40;;;;;;680432;29;887;-87
2021/12/05 04:26:19;;;;;;;;;;;21.30;46.40;;;;;;680454;29;870;-84
2021/12/05 04:26:40;;;;;;;;;;;21.40;46.30;;;;;;680575;29;511;-85
2021/12/05 04:27:01;;;;;;;;;;;21.40;46.40;;;;;;678467;29;1195;-83
2021/12/05 04:27:22;;;;;;;;;;;21.30;46.30;;;;;;678641;29;824;-83
2021/12/05 04:27:43;;;;;;;;;;;21.40;46.40;;;;;;678179;29;1264;-87
2021/12/05 04:28:05;;;;;;;;;;;21.40;46.50;;;;;;678228;29;1191;-85
2021/12/05 04:28:26;;;;;;;;;;;21.40;46.50;;;;;;678325;29;874;-83
2021/12/05 04:28:47;;;;;;;;;;;21.40;46.50;;;;;;676110;29;1242;-86
2021/12/05 04:29:07;;;;;;;;;;;21.40;46.50;;;;;;678217;29;1203;-82
2021/12/05 04:29:28;;;;;;;;;;;21.30;46.50;;;;;;678875;29;827;-84
2021/12/05 04:29:48;;;;;;;;;;;21.30;46.50;;;;;;678117;29;1135;-84
2021/12/05 04:30:11;;;;;;;;;;;21.30;46.60;;;;;;678176;29;1367;-84
2021/12/05 04:30:32;;;;;;;;;;;21.40;46.90;;;;;;679104;29;1074;-85